Time;durP1;ratioP1;P1;durP2;ratioP2;P2;SDS_P1;SDS_P2;PMS_P1;PMS_P2;Temp;Humidity;BMP_temperature;BMP_pressure;BME280_temperature;BME280_humidity;BME280_pressure;Samples;Min_cycle;Max_cycle;Signal;HPM_P1;HPM_P2
2022/01/09 00:01:27;;;;;;;9.00;2.42;;;15.80;48.20;;;;;;5053107;28;20013;-39
2022/01/09 00:03:54;;;;;;;7.78;2.45;;;15.80;48.10;;;;;;5052735;28;20028;-36
2022/01/09 00:06:19;;;;;;;6.97;1.65;;;15.90;48.00;;;;;;5035422;28;20025;-37
2022/01/09 00:08:45;;;;;;;8.60;2.50;;;15.90;47.80;;;;;;5052832;28;20025;-36
2022/01/09 00:11:12;;;;;;;8.43;2.20;;;16.00;47.70;;;;;;5053033;28;20049;-36
2022/01/09 00:13:39;;;;;;;8.88;2.75;;;16.00;47.60;;;;;;5053298;28;20037;-36
2022/01/09 00:16:06;;;;;;;9.90;2.40;;;16.10;47.50;;;;;;5035189;28;20018;-37
2022/01/09 00:18:39;;;;;;;8.85;2.17;;;16.10;47.30;;;;;;5057494;28;20036;-37
2022/01/09 00:21:06;;;;;;;9.25;2.13;;;16.10;47.20;;;;;;5059045;28;20009;-36
2022/01/09 00:23:35;;;;;;;9.38;2.88;;;16.10;47.20;;;;;;5059201;28;20012;-36
2022/01/09 00:26:01;;;;;;;7.00;1.83;;;16.10;47.10;;;;;;5057649;28;20020;-36
2022/01/09 00:28:27;;;;;;;10.05;2.70;;;16.20;47.10;;;;;;5058492;28;20100;-37
2022/01/09 00:30:54;;;;;;;8.52;1.98;;;16.20;47.10;;;;;;5058892;28;20036;-37
2022/01/09 00:33:21;;;;;;;10.88;2.60;;;16.20;47.00;;;;;;5057958;28;20017;-37
2022/01/09 00:35:48;;;;;;;10.55;2.65;;;16.20;47.00;;;;;;5057257;28;20021;-37
2022/01/09 00:38:14;;;;;;;10.48;2.25;;;16.20;46.90;;;;;;5056600;28;20029;-36
2022/01/09 00:40:40;;;;;;;9.93;2.55;;;16.30;46.90;;;;;;5056650;28;20096;-36
2022/01/09 00:43:09;;;;;;;9.73;3.05;;;16.30;46.70;;;;;;5056566;28;20060;-37
2022/01/09 00:45:36;;;;;;;8.40;2.58;;;16.30;46.70;;;;;;5056488;28;20041;-39
2022/01/09 00:48:01;;;;;;;7.45;2.20;;;16.30;46.70;;;;;;5056299;28;20091;-39
2022/01/09 00:50:28;;;;;;;9.70;2.55;;;16.30;46.80;;;;;;5056555;28;20151;-39
2022/01/09 00:52:54;;;;;;;8.52;2.50;;;16.30;46.70;;;;;;5038770;28;20009;-39
2022/01/09 00:55:19;;;;;;;11.23;3.50;;;16.30;46.60;;;;;;5055366;28;20044;-39
2022/01/09 00:57:46;;;;;;;9.07;2.40;;;16.40;46.60;;;;;;5055243;28;20044;-38
2022/01/09 01:00:12;;;;;;;8.10;2.53;;;16.40;46.60;;;;;;5055235;28;20036;-39
2022/01/09 01:02:38;;;;;;;8.57;2.45;;;16.40;46.40;;;;;;5056284;28;20020;-38
2022/01/09 01:05:05;;;;;;;10.63;2.70;;;16.40;46.40;;;;;;5054889;28;20017;-40
2022/01/09 01:07:31;;;;;;;10.98;2.75;;;16.40;46.90;;;;;;5037402;28;20016;-40
2022/01/09 01:09:57;;;;;;;10.90;2.80;;;16.40;46.30;;;;;;5054697;28;20021;-41
2022/01/09 01:12:24;;;;;;;10.50;2.70;;;16.30;46.30;;;;;;5036962;28;20499;-40
2022/01/09 01:14:52;;;;;;;11.15;2.70;;;16.40;46.20;;;;;;5055249;28;20025;-41
2022/01/09 01:17:19;;;;;;;7.50;2.28;;;16.40;46.10;;;;;;5056621;28;20024;-40
2022/01/09 01:19:46;;;;;;;11.65;3.17;;;16.50;46.00;;;;;;5056592;28;20036;-40
2022/01/09 01:22:12;;;;;;;10.73;2.72;;;16.40;46.00;;;;;;5055837;28;20021;-40
2022/01/09 01:24:39;;;;;;;10.00;2.65;;;16.40;45.90;;;;;;5055418;28;20024;-40
2022/01/09 01:27:05;;;;;;;7.78;2.30;;;16.40;45.90;;;;;;5055025;28;20020;-40
2022/01/09 01:29:31;;;;;;;10.32;2.53;;;16.40;45.80;;;;;;5037304;28;20021;-39
2022/01/09 01:31:57;;;;;;;8.90;2.22;;;16.40;45.90;;;;;;5020049;28;20017;-40
2022/01/09 01:34:24;;;;;;;9.23;2.63;;;16.40;45.80;;;;;;5054268;28;20100;-39
2022/01/09 01:36:51;;;;;;;12.23;2.78;;;16.50;45.80;;;;;;5054230;28;20021;-40
2022/01/09 01:39:17;;;;;;;11.18;3.08;;;16.40;45.80;;;;;;5054228;28;20036;-40
2022/01/09 01:41:43;;;;;;;8.35;2.47;;;16.40;45.80;;;;;;5054183;28;20092;-40
2022/01/09 01:44:11;;;;;;;10.10;2.67;;;16.40;45.90;;;;;;5036486;28;20103;-36
2022/01/09 01:46:37;;;;;;;7.85;2.53;;;16.30;45.90;;;;;;5055091;28;20100;-35
2022/01/09 01:49:03;;;;;;;8.88;2.40;;;16.30;45.90;;;;;;5055072;28;20032;-35
2022/01/09 01:51:30;;;;;;;7.72;2.47;;;16.30;46.00;;;;;;5053988;28;20104;-36
2022/01/09 01:53:56;;;;;;;7.72;2.08;;;16.20;46.10;;;;;;5054035;28;20048;-35
2022/01/09 01:56:23;;;;;;;10.65;2.92;;;16.20;46.20;;;;;;5012244;28;1216504;-35
2022/01/09 01:58:49;;;;;;;9.35;2.40;;;16.20;46.30;;;;;;5054979;28;20029;-36
2022/01/09 02:01:15;;;;;;;9.93;3.28;;;16.10;46.40;;;;;;5058875;28;20072;-36
2022/01/09 02:03:42;;;;;;;8.65;2.42;;;16.10;46.60;;;;;;5059183;28;20391;-38
2022/01/09 02:06:09;;;;;;;11.63;2.42;;;16.10;46.60;;;;;;5059385;28;20096;-37
2022/01/09 02:08:35;;;;;;;8.95;2.75;;;16.00;46.60;;;;;;5058585;28;20540;-38
2022/01/09 02:11:01;;;;;;;8.15;2.42;;;15.90;46.70;;;;;;5058488;28;20108;-38
2022/01/09 02:13:27;;;;;;;7.82;2.28;;;15.90;46.80;;;;;;5057932;28;20104;-38
2022/01/09 02:15:58;;;;;;;7.68;2.42;;;15.90;46.90;;;;;;5040005;28;20049;-37
2022/01/09 02:18:24;;;;;;;8.73;2.20;;;15.90;47.00;;;;;;5057555;28;20020;-37
2022/01/09 02:20:51;;;;;;;9.13;2.42;;;15.80;47.00;;;;;;5056881;28;20417;-38
2022/01/09 02:23:18;;;;;;;9.15;2.60;;;15.80;47.10;;;;;;5057322;28;20045;-37
2022/01/09 02:25:44;;;;;;;8.00;2.30;;;15.80;47.20;;;;;;5056538;28;20494;-37
2022/01/09 02:28:11;;;;;;;7.95;2.30;;;15.80;47.20;;;;;;5056081;28;20013;-36
2022/01/09 02:30:38;;;;;;;10.10;2.55;;;15.70;47.20;;;;;;5055896;28;20041;-36
2022/01/09 02:33:08;;;;;;;8.98;2.53;;;15.70;47.20;;;;;;5054954;28;20088;-36
2022/01/09 02:35:33;;;;;;;9.50;2.45;;;15.70;47.30;;;;;;5054918;28;20067;-36
2022/01/09 02:38:00;;;;;;;8.68;2.45;;;15.60;47.30;;;;;;5054361;28;20112;-36
2022/01/09 02:40:27;;;;;;;9.95;2.70;;;15.60;47.50;;;;;;5053613;28;20483;-36
2022/01/09 02:42:53;;;;;;;9.38;2.50;;;15.60;47.30;;;;;;5054560;28;20052;-36
2022/01/09 02:45:21;;;;;;;6.70;2.10;;;15.50;47.30;;;;;;5054395;28;20096;-36
2022/01/09 02:47:48;;;;;;;8.07;2.10;;;15.50;47.40;;;;;;5054110;28;20100;-36
2022/01/09 02:50:37;;;;;;;8.75;2.30;;;15.50;47.50;;;;;;5053803;28;20475;-35
2022/01/09 02:53:13;;;;;;;7.68;2.13;;;15.50;47.90;;;;;;5053631;28;20049;-35
2022/01/09 02:55:39;;;;;;;9.57;2.53;;;15.40;47.50;;;;;;5053633;28;20075;-35
2022/01/09 02:58:05;;;;;;;8.05;2.22;;;15.40;47.70;;;;;;5053877;28;20025;-35
2022/01/09 03:00:34;;;;;;;7.63;2.38;;;15.40;47.50;;;;;;5036488;28;20052;-36
2022/01/09 03:03:00;;;;;;;10.32;2.50;;;15.30;47.60;;;;;;5054281;28;20017;-36
2022/01/09 03:05:26;;;;;;;8.15;2.10;;;15.30;47.50;;;;;;5054129;28;20096;-36
2022/01/09 03:07:52;;;;;;;8.25;2.42;;;15.30;47.70;;;;;;5054025;28;20101;-36
2022/01/09 03:10:19;;;;;;;8.55;2.15;;;15.30;47.90;;;;;;5053651;28;20025;-35
2022/01/09 03:12:46;;;;;;;8.70;2.30;;;15.20;47.80;;;;;;5053723;28;20013;-35
2022/01/09 03:15:12;;;;;;;9.32;2.53;;;15.20;47.80;;;;;;5053338;28;20476;-35
2022/01/09 03:17:38;;;;;;;8.38;2.30;;;15.20;47.90;;;;;;5035617;28;20036;-36
2022/01/09 03:20:10;;;;;;;8.30;2.40;;;15.20;47.90;;;;;;5053113;28;20057;-35
2022/01/09 03:22:36;;;;;;;8.20;2.28;;;15.20;47.90;;;;;;5053459;28;20013;-35
2022/01/09 03:25:04;;;;;;;8.15;1.75;;;15.10;48.00;;;;;;5053147;28;20017;-36
2022/01/09 03:27:30;;;;;;;7.10;2.30;;;15.10;48.10;;;;;;5053006;28;20017;-36
2022/01/09 03:29:57;;;;;;;11.18;2.92;;;15.10;48.10;;;;;;5053129;28;20021;-35
2022/01/09 03:32:23;;;;;;;7.75;2.03;;;15.10;48.70;;;;;;5053028;28;20032;-35
2022/01/09 03:34:49;;;;;;;7.22;2.42;;;15.10;48.20;;;;;;5053206;28;20021;-36
2022/01/09 03:37:15;;;;;;;8.18;2.03;;;15.00;48.20;;;;;;5053026;28;20029;-36
2022/01/09 03:39:42;;;;;;;6.50;1.80;;;15.00;48.30;;;;;;5053268;28;20091;-36
2022/01/09 03:42:08;;;;;;;7.15;2.58;;;15.00;48.30;;;;;;5053245;28;20019;-36
2022/01/09 03:44:35;;;;;;;9.40;2.10;;;15.00;48.40;;;;;;5053350;28;20020;-36
2022/01/09 03:47:01;;;;;;;8.88;2.28;;;15.00;48.40;;;;;;5053821;28;20017;-36
2022/01/09 03:49:28;;;;;;;8.07;2.25;;;15.00;48.50;;;;;;5053500;28;20029;-36
2022/01/09 03:51:56;;;;;;;7.25;1.90;;;15.00;48.50;;;;;;5053185;28;20120;-36
2022/01/09 03:54:22;;;;;;;8.35;2.33;;;14.90;48.50;;;;;;5053585;28;20048;-36
2022/01/09 03:56:51;;;;;;;8.68;2.20;;;14.90;48.60;;;;;;5035683;28;20056;-36
2022/01/09 03:59:17;;;;;;;8.13;2.17;;;14.90;48.60;;;;;;5053213;28;20021;-36
2022/01/09 04:01:44;;;;;;;7.20;1.95;;;14.90;48.70;;;;;;5052819;28;20017;-36
2022/01/09 04:04:11;;;;;;;7.47;2.05;;;14.90;48.70;;;;;;5052719;28;20056;-38
2022/01/09 04:06:45;;;;;;;9.52;2.20;;;14.90;48.80;;;;;;5052777;28;20452;-38
2022/01/09 04:09:18;;;;;;;7.55;1.80;;;14.90;48.80;;;;;;5052752;28;20023;-38
2022/01/09 04:11:45;;;;;;;7.35;2.47;;;14.90;48.80;;;;;;5053057;28;20064;-37
2022/01/09 04:14:12;;;;;;;7.78;2.30;;;14.80;48.90;;;;;;5053020;28;20027;-38
2022/01/09 04:16:38;;;;;;;8.18;1.83;;;14.80;49.00;;;;;;5035581;28;20375;-38
2022/01/09 04:19:05;;;;;;;7.35;2.03;;;14.80;49.00;;;;;;5052772;28;20037;-38
2022/01/09 04:21:33;;;;;;;8.52;2.28;;;14.80;49.10;;;;;;5052653;28;20014;-38
2022/01/09 04:23:59;;;;;;;6.25;1.80;;;14.80;49.20;;;;;;5052632;28;20032;-39
2022/01/09 04:26:25;;;;;;;7.70;2.17;;;14.70;49.20;;;;;;5052964;28;20021;-38
2022/01/09 04:28:52;;;;;;;6.70;2.17;;;14.80;49.30;;;;;;5052728;28;20024;-38
2022/01/09 04:31:18;;;;;;;6.93;1.80;;;14.80;49.30;;;;;;5052533;28;20013;-39
2022/01/09 04:33:45;;;;;;;5.43;1.98;;;14.80;49.40;;;;;;5052684;28;20025;-39
2022/01/09 04:36:12;;;;;;;5.63;1.83;;;14.70;49.40;;;;;;5052801;28;20037;-39
2022/01/09 04:38:39;;;;;;;7.00;2.08;;;14.70;49.40;;;;;;5052814;28;20098;-39
2022/01/09 04:41:06;;;;;;;4.50;1.60;;;14.70;49.50;;;;;;5052771;28;20021;-38
2022/01/09 04:43:33;;;;;;;6.65;2.05;;;14.70;49.60;;;;;;5052304;28;20430;-39
2022/01/09 04:45:59;;;;;;;10.40;2.63;;;14.70;49.60;;;;;;5052910;28;20084;-40
2022/01/09 04:48:26;;;;;;;7.32;1.95;;;14.60;49.60;;;;;;5052675;28;20029;-40
2022/01/09 04:50:53;;;;;;;5.85;1.55;;;14.70;49.70;;;;;;5052394;28;20538;-40
2022/01/09 04:53:19;;;;;;;7.55;2.20;;;14.60;49.70;;;;;;5052436;28;20013;-40
2022/01/09 04:55:47;;;;;;;7.13;1.95;;;14.60;49.70;;;;;;5034543;28;20503;-39
2022/01/09 04:58:13;;;;;;;6.82;1.77;;;14.70;49.70;;;;;;5052459;28;20021;-39
2022/01/09 05:00:42;;;;;;;6.20;1.92;;;14.60;49.70;;;;;;5052449;28;20032;-40
2022/01/09 05:03:10;;;;;;;4.65;1.73;;;14.70;49.80;;;;;;5054367;28;20032;-40
2022/01/09 05:05:36;;;;;;;8.38;2.30;;;14.60;49.80;;;;;;5057001;28;20017;-36
2022/01/09 05:08:02;;;;;;;9.07;2.72;;;14.60;49.90;;;;;;5056461;28;20017;-36
2022/01/09 05:10:28;;;;;;;6.30;1.70;;;14.60;49.90;;;;;;5056819;28;20104;-36
2022/01/09 05:12:54;;;;;;;5.97;1.70;;;14.60;49.90;;;;;;5057000;28;20502;-36
2022/01/09 05:15:21;;;;;;;8.15;2.13;;;14.60;49.90;;;;;;5056156;28;20046;-36
2022/01/09 05:17:50;;;;;;;7.85;1.90;;;14.60;50.00;;;;;;5055824;28;20021;-36
2022/01/09 05:20:17;;;;;;;6.60;1.75;;;14.60;50.10;;;;;;5055642;28;20116;-36
2022/01/09 05:22:43;;;;;;;8.20;2.20;;;14.50;50.10;;;;;;5055346;28;20041;-37
2022/01/09 05:25:12;;;;;;;7.35;1.58;;;14.50;50.10;;;;;;5055698;28;20017;-36
2022/01/09 05:27:38;;;;;;;6.05;1.90;;;14.50;50.20;;;;;;5055462;28;20028;-36
2022/01/09 05:30:05;;;;;;;5.57;2.10;;;14.50;50.20;;;;;;5055655;28;20083;-37
2022/01/09 05:32:31;;;;;;;7.10;1.73;;;14.50;50.10;;;;;;5055570;28;20104;-36
2022/01/09 05:34:57;;;;;;;5.60;1.90;;;14.60;50.20;;;;;;5055539;28;20028;-36
2022/01/09 05:37:23;;;;;;;7.30;2.05;;;14.50;50.20;;;;;;5055330;28;20083;-36
2022/01/09 05:39:49;;;;;;;6.30;1.85;;;14.50;50.30;;;;;;5055103;28;20040;-36
2022/01/09 05:42:15;;;;;;;6.70;1.90;;;14.50;50.30;;;;;;5055356;28;20018;-36
2022/01/09 05:44:41;;;;;;;5.88;1.92;;;14.50;50.40;;;;;;5054994;28;20024;-36
2022/01/09 05:47:07;;;;;;;6.90;1.77;;;14.50;50.40;;;;;;5037571;28;20021;-36
2022/01/09 05:49:33;;;;;;;5.78;1.58;;;14.50;50.40;;;;;;5055007;28;20483;-36
2022/01/09 05:52:00;;;;;;;5.45;1.48;;;14.50;50.40;;;;;;5054784;28;20017;-36
2022/01/09 05:54:27;;;;;;;4.63;1.50;;;14.50;50.50;;;;;;5037146;28;20136;-36
2022/01/09 05:56:53;;;;;;;5.78;1.52;;;14.50;50.50;;;;;;5037439;28;20025;-36
2022/01/09 05:59:19;;;;;;;5.32;1.42;;;14.50;50.50;;;;;;5055425;28;20021;-37
2022/01/09 06:01:46;;;;;;;5.32;1.63;;;14.50;50.50;;;;;;5066145;28;20025;-37
2022/01/09 06:04:12;;;;;;;5.13;1.55;;;14.50;50.50;;;;;;5059156;28;20013;-37
2022/01/09 06:06:39;;;;;;;6.00;1.80;;;14.40;50.50;;;;;;5057172;28;20464;-36
2022/01/09 06:09:04;;;;;;;5.10;1.80;;;14.40;50.50;;;;;;5057456;28;20060;-37
2022/01/09 06:11:31;;;;;;;7.32;2.05;;;14.50;50.70;;;;;;5056900;28;20472;-36
2022/01/09 06:13:58;;;;;;;5.45;1.52;;;14.40;50.70;;;;;;5056472;28;20047;-36
2022/01/09 06:16:24;;;;;;;6.88;1.90;;;14.40;50.70;;;;;;5057472;28;20072;-36
2022/01/09 06:18:51;;;;;;;4.82;1.67;;;14.50;50.70;;;;;;5058045;28;20025;-36
2022/01/09 06:21:18;;;;;;;4.35;1.40;;;14.40;50.70;;;;;;5057178;28;20091;-36
2022/01/09 06:23:44;;;;;;;5.55;1.90;;;14.40;50.80;;;;;;5057343;28;20383;-37
2022/01/09 06:26:11;;;;;;;6.68;2.05;;;14.40;50.80;;;;;;5057089;28;20023;-37
2022/01/09 06:28:38;;;;;;;4.38;1.48;;;14.40;50.80;;;;;;5057548;28;20021;-36
2022/01/09 06:31:04;;;;;;;4.47;1.50;;;14.40;50.80;;;;;;5057049;28;20036;-36
2022/01/09 06:33:30;;;;;;;4.97;1.65;;;14.40;50.90;;;;;;5056629;28;20017;-36
2022/01/09 06:35:57;;;;;;;5.45;1.83;;;14.40;50.80;;;;;;5056674;28;20051;-36
2022/01/09 06:38:22;;;;;;;6.00;1.67;;;14.40;50.90;;;;;;5056646;28;20009;-36
2022/01/09 06:40:49;;;;;;;7.10;1.67;;;14.40;50.90;;;;;;5055915;28;20017;-36
2022/01/09 06:43:15;;;;;;;5.07;1.40;;;14.40;50.90;;;;;;5056295;28;20066;-37
2022/01/09 06:45:42;;;;;;;7.25;2.25;;;14.40;50.90;;;;;;5057044;28;20028;-37
2022/01/09 06:48:08;;;;;;;5.00;1.55;;;14.40;51.00;;;;;;5056336;28;20013;-36
2022/01/09 06:50:34;;;;;;;5.38;1.58;;;14.40;51.00;;;;;;5038543;28;20028;-37
2022/01/09 06:53:00;;;;;;;4.20;1.55;;;14.40;51.00;;;;;;5056687;28;20021;-37
2022/01/09 06:55:27;;;;;;;6.97;1.55;;;14.40;51.10;;;;;;5054714;28;20045;-36
2022/01/09 06:57:54;;;;;;;4.55;1.80;;;14.40;51.00;;;;;;5055336;28;20024;-36
2022/01/09 07:00:20;;;;;;;6.72;1.70;;;14.30;51.00;;;;;;5054511;28;20079;-37
2022/01/09 07:02:46;;;;;;;6.65;1.60;;;14.30;51.10;;;;;;5053810;28;20093;-36
2022/01/09 07:05:12;;;;;;;6.95;2.03;;;14.30;51.10;;;;;;5053364;28;20484;-36
2022/01/09 07:07:38;;;;;;;4.82;1.60;;;14.30;51.20;;;;;;5053701;28;20024;-38
2022/01/09 07:10:05;;;;;;;3.95;1.40;;;14.30;51.10;;;;;;5053328;28;20041;-38
2022/01/09 07:12:31;;;;;;;6.00;1.52;;;14.30;51.20;;;;;;5053298;28;20063;-37
2022/01/09 07:14:58;;;;;;;3.85;1.42;;;14.30;51.20;;;;;;5053262;28;20033;-37
2022/01/09 07:17:23;;;;;;;5.63;1.70;;;14.30;51.20;;;;;;5053323;28;20032;-36
2022/01/09 07:19:50;;;;;;;5.90;1.70;;;14.30;51.20;;;;;;5053119;28;20031;-37
2022/01/09 07:22:16;;;;;;;4.63;1.50;;;14.30;51.30;;;;;;5053131;28;20100;-36
2022/01/09 07:24:43;;;;;;;5.25;1.67;;;14.30;51.30;;;;;;5053361;28;20021;-38
2022/01/09 07:27:10;;;;;;;5.70;1.70;;;14.30;51.40;;;;;;5053150;28;20025;-38
2022/01/09 07:29:36;;;;;;;4.72;1.40;;;14.30;51.40;;;;;;5053076;28;20043;-38
2022/01/09 07:32:03;;;;;;;3.90;1.42;;;14.30;51.40;;;;;;5052975;28;20013;-38
2022/01/09 07:34:29;;;;;;;5.07;1.40;;;14.30;51.40;;;;;;5053198;28;20029;-38
2022/01/09 07:36:56;;;;;;;6.88;1.85;;;14.30;51.40;;;;;;5052916;28;20023;-38
2022/01/09 07:39:22;;;;;;;4.30;1.25;;;14.30;51.40;;;;;;5053147;28;20035;-38
2022/01/09 07:41:49;;;;;;;3.40;1.20;;;14.30;51.40;;;;;;5053244;28;20025;-38
2022/01/09 07:44:15;;;;;;;4.97;1.40;;;14.30;51.50;;;;;;5053203;28;20025;-38
2022/01/09 07:46:43;;;;;;;4.30;1.42;;;14.20;51.40;;;;;;5053404;28;20009;-40
2022/01/09 07:49:08;;;;;;;5.90;1.40;;;14.20;51.50;;;;;;5053812;28;20036;-41
2022/01/09 07:51:36;;;;;;;5.03;1.48;;;14.20;51.50;;;;;;5053591;28;20017;-39
2022/01/09 07:54:02;;;;;;;5.68;1.70;;;14.20;51.60;;;;;;5053019;28;20519;-39
2022/01/09 07:56:28;;;;;;;4.80;1.58;;;14.30;51.60;;;;;;5053055;28;20048;-40
2022/01/09 07:58:54;;;;;;;5.38;1.50;;;14.30;51.50;;;;;;5053326;28;20040;-39
2022/01/09 08:01:20;;;;;;;3.60;1.27;;;14.30;51.40;;;;;;5052855;28;20525;-39
2022/01/09 08:03:46;;;;;;;4.90;1.70;;;14.30;51.60;;;;;;5052926;28;20029;-39
2022/01/09 08:06:12;;;;;;;7.90;2.35;;;14.20;51.70;;;;;;5034855;28;20487;-40
2022/01/09 08:08:38;;;;;;;6.25;1.95;;;14.20;51.60;;;;;;5035338;28;20009;-40
2022/01/09 08:11:04;;;;;;;5.43;1.38;;;14.20;51.60;;;;;;5035149;28;20055;-40
2022/01/09 08:13:32;;;;;;;5.38;1.48;;;14.20;51.70;;;;;;5053060;28;20023;-41
2022/01/09 08:15:58;;;;;;;3.58;1.20;;;14.20;51.70;;;;;;5053012;28;20029;-40
2022/01/09 08:18:25;;;;;;;4.50;1.52;;;14.20;51.70;;;;;;5052772;28;20021;-40
2022/01/09 08:20:52;;;;;;;4.68;1.40;;;14.20;51.70;;;;;;5052798;28;20067;-40
2022/01/09 08:23:19;;;;;;;6.07;1.38;;;14.20;51.80;;;;;;5052783;28;20021;-40
2022/01/09 08:25:45;;;;;;;3.17;1.30;;;14.20;51.70;;;;;;5052756;28;20017;-40
2022/01/09 08:28:11;;;;;;;5.22;1.52;;;14.20;51.70;;;;;;5052471;28;20629;-40
2022/01/09 08:30:38;;;;;;;6.40;1.35;;;14.20;51.70;;;;;;5052850;28;20025;-40
2022/01/09 08:33:04;;;;;;;3.80;1.27;;;14.20;51.70;;;;;;5052572;28;20471;-40
2022/01/09 08:35:30;;;;;;;4.70;1.33;;;14.20;51.70;;;;;;5052759;28;20017;-40
2022/01/09 08:37:57;;;;;;;5.80;1.40;;;14.20;51.70;;;;;;5054328;28;20006;-40
2022/01/09 08:40:23;;;;;;;5.40;1.70;;;14.20;52.20;;;;;;5056488;28;20036;-42
2022/01/09 08:42:50;;;;;;;5.80;1.40;;;14.20;51.70;;;;;;5056384;28;20028;-40
2022/01/09 08:45:16;;;;;;;4.68;1.40;;;14.20;51.70;;;;;;5038805;28;20013;-42
2022/01/09 08:47:43;;;;;;;4.80;1.50;;;14.20;51.70;;;;;;5056522;28;20015;-42
2022/01/09 08:50:09;;;;;;;6.15;1.63;;;14.20;51.70;;;;;;5056093;28;20527;-43
2022/01/09 08:52:36;;;;;;;3.55;1.17;;;14.20;51.70;;;;;;5056461;28;20021;-42
2022/01/09 08:55:02;;;;;;;4.63;1.48;;;14.20;51.70;;;;;;5056236;28;20525;-42
2022/01/09 08:57:28;;;;;;;5.20;1.20;;;14.20;51.70;;;;;;5056082;28;20483;-43
2022/01/09 08:59:55;;;;;;;5.70;1.63;;;14.20;51.60;;;;;;5056162;28;20052;-42
2022/01/09 09:02:23;;;;;;;6.50;1.60;;;14.30;51.70;;;;;;5055928;28;20014;-42
2022/01/09 09:04:49;;;;;;;4.03;1.45;;;14.30;51.60;;;;;;5056130;28;20023;-36
2022/01/09 09:07:18;;;;;;;4.82;1.40;;;14.40;51.40;;;;;;5055882;28;20013;-36
2022/01/09 09:09:44;;;;;;;3.55;1.20;;;14.40;51.20;;;;;;5056035;28;20017;-36
2022/01/09 09:12:11;;;;;;;3.78;1.58;;;14.60;50.80;;;;;;5056138;28;20017;-36
2022/01/09 09:14:37;;;;;;;5.65;1.48;;;14.70;50.20;;;;;;5055872;28;20045;-36
2022/01/09 09:17:04;;;;;;;4.80;1.60;;;14.70;50.20;;;;;;5055612;28;20020;-36
2022/01/09 09:19:31;;;;;;;4.13;1.33;;;14.80;50.10;;;;;;5038193;28;20103;-36
2022/01/09 09:21:56;;;;;;;4.10;1.52;;;14.80;50.00;;;;;;5055559;28;20467;-36
2022/01/09 09:24:22;;;;;;;3.42;1.50;;;14.80;50.00;;;;;;5055571;28;20088;-36
2022/01/09 09:26:48;;;;;;;3.88;1.15;;;14.80;50.10;;;;;;5055415;28;20112;-36
2022/01/09 09:29:14;;;;;;;4.32;1.83;;;14.80;50.10;;;;;;5055504;28;20020;-36
2022/01/09 09:31:40;;;;;;;4.47;1.55;;;14.70;50.20;;;;;;5037510;28;20021;-36
2022/01/09 09:34:08;;;;;;;4.07;1.50;;;14.70;50.20;;;;;;5055333;28;20025;-36
2022/01/09 09:36:34;;;;;;;4.53;1.23;;;14.70;50.30;;;;;;5038122;28;20071;-36
2022/01/09 09:39:00;;;;;;;3.58;1.55;;;14.70;50.40;;;;;;5055309;28;20033;-36
2022/01/09 09:41:27;;;;;;;4.50;1.58;;;14.70;50.40;;;;;;5037678;28;20013;-36
2022/01/09 09:43:54;;;;;;;5.07;1.48;;;14.60;50.40;;;;;;5055510;28;20040;-36
2022/01/09 09:46:23;;;;;;;3.72;1.20;;;14.60;50.50;;;;;;5055154;28;20013;-38
2022/01/09 09:48:51;;;;;;;5.40;1.40;;;14.60;50.60;;;;;;5055042;28;20021;-38
2022/01/09 09:51:16;;;;;;;3.47;1.30;;;14.60;50.60;;;;;;5055383;28;20017;-38
2022/01/09 09:53:43;;;;;;;3.08;1.20;;;14.60;50.60;;;;;;5054900;28;20029;-38
2022/01/09 09:56:09;;;;;;;5.45;1.40;;;14.60;50.60;;;;;;5054912;28;20041;-38
2022/01/09 09:58:41;;;;;;;6.32;1.70;;;14.70;50.40;;;;;;5037494;28;20112;-38
2022/01/09 10:01:08;;;;;;;4.45;1.50;;;14.80;50.20;;;;;;5056143;28;20041;-38
2022/01/09 10:03:34;;;;;;;4.40;1.10;;;14.90;49.80;;;;;;5038369;28;20009;-39
2022/01/09 10:06:01;;;;;;;4.55;1.30;;;15.00;49.60;;;;;;5038855;28;20040;-36
2022/01/09 10:08:37;;;;;;;3.42;1.40;;;15.00;49.50;;;;;;5057351;28;20388;-36
2022/01/09 10:11:17;;;;;;;4.40;1.25;;;15.10;49.40;;;;;;5057827;28;20037;-36
2022/01/09 10:13:43;;;;;;;3.83;1.30;;;15.20;49.20;;;;;;5057400;28;20048;-37
2022/01/09 10:16:09;;;;;;;3.45;1.30;;;15.30;49.00;;;;;;5039273;28;20024;-38
2022/01/09 10:18:48;;;;;;;3.28;1.40;;;15.30;48.80;;;;;;5057477;28;20122;-36
2022/01/09 10:21:15;;;;;;;3.17;1.20;;;15.40;48.70;;;;;;5057680;28;20047;-37
2022/01/09 10:23:59;;;;;;;4.55;1.42;;;15.50;48.50;;;;;;5057376;28;20151;-37
2022/01/09 10:26:26;;;;;;;3.60;1.17;;;15.60;48.20;;;;;;5057861;28;20033;-38
2022/01/09 10:28:52;;;;;;;4.47;1.30;;;15.70;48.00;;;;;;5057745;28;20040;-40
2022/01/09 10:31:19;;;;;;;3.33;1.00;;;15.70;47.80;;;;;;5058341;28;20045;-39
2022/01/09 10:34:01;;;;;;;4.93;1.38;;;15.80;47.70;;;;;;5058300;28;20045;-39
2022/01/09 10:36:38;;;;;;;3.38;1.10;;;15.90;47.40;;;;;;5058601;28;20025;-39
2022/01/09 10:39:14;;;;;;;3.53;1.40;;;15.90;47.30;;;;;;5058046;28;20432;-40
2022/01/09 10:41:49;;;;;;;5.00;1.83;;;16.00;47.10;;;;;;5058295;28;20092;-39
2022/01/09 10:44:17;;;;;;;2.58;1.00;;;16.00;47.10;;;;;;5057154;28;20017;-41
2022/01/09 10:46:57;;;;;;;4.00;1.23;;;16.10;46.90;;;;;;5057365;28;20539;-41
2022/01/09 10:49:23;;;;;;;3.38;1.15;;;16.10;46.70;;;;;;5057995;28;20021;-41
2022/01/09 10:51:50;;;;;;;4.40;1.40;;;16.20;46.50;;;;;;5040330;28;20104;-40
2022/01/09 10:54:29;;;;;;;3.97;1.20;;;16.30;46.30;;;;;;5040242;28;20029;-44
2022/01/09 10:57:12;;;;;;;4.30;1.30;;;16.40;46.00;;;;;;5058095;28;20017;-42
2022/01/09 10:59:38;;;;;;;4.47;1.30;;;16.50;45.80;;;;;;5057677;28;20060;-42
2022/01/09 11:02:05;;;;;;;4.05;1.30;;;16.60;45.60;;;;;;5039768;28;20032;-40
2022/01/09 11:04:31;;;;;;;2.85;1.20;;;16.70;45.40;;;;;;5040410;28;20024;-44
2022/01/09 11:06:58;;;;;;;4.15;1.35;;;16.70;45.20;;;;;;5058339;28;20067;-44
2022/01/09 11:09:26;;;;;;;3.53;1.15;;;16.80;45.10;;;;;;5058440;28;20062;-41
2022/01/09 11:11:52;;;;;;;4.47;1.40;;;16.80;44.90;;;;;;5040887;28;20384;-41
2022/01/09 11:14:20;;;;;;;3.13;1.25;;;16.90;44.70;;;;;;5058259;28;20026;-42
2022/01/09 11:16:51;;;;;;;4.05;1.20;;;17.00;44.70;;;;;;5056035;28;20009;-41
2022/01/09 11:19:18;;;;;;;2.88;1.10;;;17.00;44.40;;;;;;5039192;28;20096;-44
2022/01/09 11:21:46;;;;;;;3.08;1.15;;;17.10;44.30;;;;;;5055660;28;20009;-42
2022/01/09 11:24:57;;;;;;;2.17;1.05;;;17.20;44.10;;;;;;5055323;28;20009;-41
2022/01/09 11:27:24;;;;;;;2.78;1.25;;;17.20;44.00;;;;;;5017838;28;20174;-41
2022/01/09 11:30:14;;;;;;;2.92;1.02;;;17.30;43.80;;;;;;5055821;28;20036;-40
2022/01/09 11:32:45;;;;;;;3.10;1.10;;;17.40;43.70;;;;;;5038380;28;20017;-40
2022/01/09 11:35:38;;;;;;;4.47;1.42;;;17.40;43.70;;;;;;5037848;28;20021;-40
2022/01/09 11:38:26;;;;;;;2.60;1.00;;;17.40;43.50;;;;;;5055782;28;20092;-40
2022/01/09 11:40:52;;;;;;;3.10;1.20;;;17.50;43.40;;;;;;5038141;28;20020;-40
2022/01/09 11:43:19;;;;;;;2.67;1.00;;;17.50;43.40;;;;;;5055587;28;20491;-40
2022/01/09 11:45:58;;;;;;;3.78;1.20;;;17.50;43.30;;;;;;5037744;28;20013;-41
2022/01/09 11:48:58;;;;;;;3.13;1.20;;;17.50;43.30;;;;;;5055307;28;20082;-41
2022/01/09 11:51:34;;;;;;;3.85;1.27;;;17.60;43.30;;;;;;5039980;28;20017;-41
2022/01/09 11:54:12;;;;;;;3.88;1.25;;;17.60;43.20;;;;;;5055559;28;20013;-42
2022/01/09 11:56:57;;;;;;;4.22;1.38;;;17.60;43.10;;;;;;5015719;28;20025;-41
2022/01/09 11:59:31;;;;;;;3.88;1.17;;;17.60;43.10;;;;;;5015781;28;20056;-40
2022/01/09 12:02:03;;;;;;;3.47;1.27;;;17.60;43.10;;;;;;5015793;28;20013;-41
2022/01/09 12:04:37;;;;;;;4.05;1.27;;;17.60;43.10;;;;;;5016258;28;20018;-40
2022/01/09 12:07:04;;;;;;;2.67;1.08;;;17.60;43.10;;;;;;5016263;28;20021;-41
2022/01/09 12:09:32;;;;;;;4.43;1.10;;;17.60;43.10;;;;;;5015931;28;20006;-41
2022/01/09 12:12:03;;;;;;;3.22;1.13;;;17.60;43.20;;;;;;5017569;28;20473;-46
2022/01/09 12:15:05;;;;;;;3.33;1.10;;;17.60;43.30;;;;;;5019656;28;20030;-41
2022/01/09 12:17:39;;;;;;;2.67;1.00;;;17.60;43.20;;;;;;5017745;28;20045;-40
2022/01/09 12:20:14;;;;;;;3.80;1.40;;;17.60;43.20;;;;;;5017262;28;20046;-41
2022/01/09 12:22:46;;;;;;;3.47;1.13;;;17.60;43.20;;;;;;5017449;28;20406;-42
2022/01/09 12:25:24;;;;;;;2.47;1.15;;;17.60;43.20;;;;;;5017606;28;20049;-36
2022/01/09 12:27:57;;;;;;;2.33;1.13;;;17.60;43.20;;;;;;5017284;28;20026;-36
2022/01/09 12:30:44;;;;;;;2.13;0.80;;;17.60;43.30;;;;;;5017301;28;20037;-38
2022/01/09 12:33:21;;;;;;;3.90;1.20;;;17.60;43.30;;;;;;5022019;28;20485;-37
2022/01/09 12:35:54;;;;;;;3.65;1.33;;;17.60;43.30;;;;;;5022513;28;20030;-38
2022/01/09 12:38:21;;;;;;;4.45;1.30;;;17.60;43.30;;;;;;5022310;28;20018;-38
2022/01/09 12:40:49;;;;;;;2.33;1.10;;;17.60;43.20;;;;;;5022534;28;20017;-37
2022/01/09 12:43:18;;;;;;;3.75;1.10;;;17.50;43.20;;;;;;5020782;28;20018;-38
2022/01/09 12:45:45;;;;;;;2.28;1.00;;;17.50;43.80;;;;;;5020877;28;20018;-38
2022/01/09 12:48:21;;;;;;;4.70;1.10;;;17.50;43.40;;;;;;5020859;28;20672;-38
2022/01/09 12:50:48;;;;;;;2.58;1.10;;;17.50;43.40;;;;;;5020690;28;20010;-39